createdAt,value
2018-11-06T00:00:07.029Z,100.00
2018-11-06T00:02:35.621Z,100.00
2018-11-06T00:05:09.444Z,100.00
2018-11-06T00:07:37.974Z,100.00
2018-11-06T00:10:06.520Z,100.00
2018-11-06T00:12:35.111Z,100.00
2018-11-06T00:15:03.729Z,100.00
2018-11-06T00:17:32.282Z,100.00
2018-11-06T00:20:00.998Z,100.00
2018-11-06T00:22:29.601Z,100.00
2018-11-06T00:24:58.415Z,100.00
2018-11-06T00:27:27.129Z,100.00
2018-11-06T00:29:55.693Z,100.00
2018-11-06T00:32:24.198Z,100.00
2018-11-06T00:34:52.815Z,100.00
2018-11-06T00:37:21.399Z,100.00
2018-11-06T00:39:50.013Z,100.00
2018-11-06T00:42:18.550Z,100.00
2018-11-06T00:44:47.118Z,100.00
2018-11-06T00:47:15.687Z,100.00
2018-11-06T00:49:44.220Z,100.00
2018-11-06T00:52:12.762Z,100.00
2018-11-06T00:54:41.311Z,100.00
2018-11-06T00:57:09.879Z,100.00
2018-11-06T00:59:38.466Z,100.00
2018-11-06T01:02:07.377Z,100.00
2018-11-06T01:04:35.904Z,100.00
2018-11-06T01:07:04.813Z,100.00
2018-11-06T01:09:33.343Z,100.00
2018-11-06T01:12:01.879Z,100.00
2018-11-06T01:14:30.465Z,100.00
2018-11-06T01:16:59.046Z,100.00
2018-11-06T01:19:27.576Z,100.00
2018-11-06T01:21:56.163Z,100.00
2018-11-06T01:24:24.693Z,100.00
2018-11-06T01:26:53.299Z,100.00
2018-11-06T01:29:22.227Z,100.00
2018-11-06T01:31:50.823Z,100.00
2018-11-06T01:34:19.329Z,100.00
2018-11-06T01:36:47.967Z,100.00
2018-11-06T01:39:16.678Z,100.00
2018-11-06T01:41:45.175Z,100.00
2018-11-06T01:44:13.835Z,100.00
2018-11-06T01:46:42.358Z,100.00
2018-11-06T01:49:10.904Z,100.00
2018-11-06T01:51:39.480Z,100.00
2018-11-06T01:54:07.991Z,100.00
2018-11-06T01:56:36.569Z,100.00
2018-11-06T01:59:05.308Z,100.00
2018-11-06T02:01:36.815Z,100.00
2018-11-06T02:04:05.394Z,100.00
2018-11-06T02:06:33.933Z,100.00
2018-11-06T02:09:02.552Z,100.00
2018-11-06T02:11:31.158Z,100.00
2018-11-06T02:13:59.790Z,100.00
2018-11-06T02:16:28.347Z,100.00
2018-11-06T02:18:56.883Z,100.00
2018-11-06T02:21:25.446Z,100.00
2018-11-06T02:23:53.966Z,100.00
2018-11-06T02:26:22.597Z,100.00
2018-11-06T02:28:51.162Z,100.00
2018-11-06T02:31:19.815Z,100.00
2018-11-06T02:33:48.342Z,100.00
2018-11-06T02:36:16.874Z,100.00
2018-11-06T02:38:45.420Z,100.00
2018-11-06T02:41:13.918Z,100.00
2018-11-06T02:43:42.637Z,100.00
2018-11-06T02:46:11.167Z,100.00
2018-11-06T02:48:39.712Z,100.00
2018-11-06T02:51:08.257Z,100.00
2018-11-06T02:53:36.899Z,100.00
2018-11-06T02:56:05.603Z,100.00
2018-11-06T02:58:34.158Z,100.00
2018-11-06T03:01:02.807Z,100.00
2018-11-06T03:03:36.527Z,100.00
2018-11-06T03:06:05.047Z,100.00
2018-11-06T03:08:33.677Z,100.00
2018-11-06T03:11:02.221Z,100.00
2018-11-06T03:13:30.764Z,100.00
2018-11-06T03:15:59.377Z,100.00
2018-11-06T03:18:27.907Z,100.00
2018-11-06T03:21:00.792Z,100.00
2018-11-06T03:23:29.335Z,100.00
2018-11-06T03:25:57.934Z,100.00
2018-11-06T03:28:26.469Z,100.00
2018-11-06T03:30:54.970Z,100.00
2018-11-06T03:33:23.563Z,100.00
2018-11-06T03:35:52.067Z,100.00
2018-11-06T03:38:20.740Z,100.00
2018-11-06T03:40:49.273Z,100.00
2018-11-06T03:43:17.789Z,100.00
2018-11-06T03:45:46.321Z,100.00
2018-11-06T03:48:14.868Z,100.00
2018-11-06T03:50:43.420Z,100.00
2018-11-06T03:53:12.002Z,100.00
2018-11-06T03:55:40.585Z,100.00
2018-11-06T03:58:09.131Z,100.00
2018-11-06T04:00:37.742Z,100.00
2018-11-06T04:03:06.740Z,100.00
2018-11-06T04:05:35.285Z,100.00
2018-11-06T04:08:03.882Z,100.00
2018-11-06T04:10:32.487Z,100.00
2018-11-06T04:13:01.144Z,100.00
2018-11-06T04:15:29.838Z,100.00
2018-11-06T04:17:58.403Z,100.00
2018-11-06T04:20:26.952Z,100.00
2018-11-06T04:22:55.571Z,100.00
2018-11-06T04:25:24.127Z,100.00
2018-11-06T04:27:53.005Z,100.00
2018-11-06T04:30:21.566Z,100.00
2018-11-06T04:32:50.132Z,100.00
2018-11-06T04:35:18.702Z,100.00
2018-11-06T04:37:47.294Z,100.00
2018-11-06T04:40:15.813Z,100.00
2018-11-06T04:42:44.530Z,100.00
2018-11-06T04:45:13.672Z,100.00
2018-11-06T04:47:42.603Z,100.00
2018-11-06T04:50:11.375Z,100.00
2018-11-06T04:52:40.281Z,100.00
2018-11-06T04:55:10.245Z,100.00
2018-11-06T04:57:38.791Z,100.00
2018-11-06T05:00:09.614Z,100.00
2018-11-06T05:02:38.318Z,100.00
2018-11-06T05:05:07.230Z,100.00
2018-11-06T05:07:35.835Z,100.00
2018-11-06T05:10:04.521Z,100.00
2018-11-06T05:12:33.010Z,100.00
2018-11-06T05:15:01.581Z,100.00
2018-11-06T05:17:30.420Z,100.00
2018-11-06T05:19:59.011Z,100.00
2018-11-06T05:22:28.033Z,100.00
2018-11-06T05:24:56.562Z,100.00
2018-11-06T05:27:25.106Z,100.00
2018-11-06T05:29:53.766Z,100.00
2018-11-06T05:32:22.514Z,100.00
2018-11-06T05:34:51.198Z,100.00
2018-11-06T05:37:19.661Z,100.00
2018-11-06T05:39:59.510Z,100.00
2018-11-06T05:42:28.084Z,100.00
2018-11-06T05:44:56.571Z,100.00
2018-11-06T05:47:25.127Z,100.00
2018-11-06T05:49:53.619Z,100.00
2018-11-06T05:52:22.245Z,100.00
2018-11-06T05:54:50.926Z,100.00
2018-11-06T05:57:19.433Z,100.00
2018-11-06T05:59:47.994Z,100.00
2018-11-06T06:02:16.612Z,100.00
2018-11-06T06:04:45.250Z,100.00
2018-11-06T06:07:13.810Z,100.00
2018-11-06T06:09:42.402Z,100.00
2018-11-06T06:12:10.907Z,100.00
2018-11-06T06:14:39.455Z,100.00
2018-11-06T06:17:08.201Z,100.00
2018-11-06T06:19:36.999Z,100.00
2018-11-06T06:22:06.055Z,100.00
2018-11-06T06:24:34.675Z,100.00
2018-11-06T06:27:03.386Z,100.00
2018-11-06T06:29:31.959Z,100.00
2018-11-06T06:32:00.570Z,100.00
2018-11-06T06:34:29.479Z,100.00
2018-11-06T06:36:58.007Z,100.00
2018-11-06T06:39:26.521Z,100.00
2018-11-06T06:41:55.116Z,100.00
2018-11-06T06:44:24.513Z,100.00
2018-11-06T06:46:53.026Z,100.00
2018-11-06T06:49:21.858Z,100.00
2018-11-06T06:51:50.371Z,100.00
2018-11-06T06:54:19.254Z,100.00
2018-11-06T06:56:47.622Z,100.00
2018-11-06T06:59:16.242Z,100.00
2018-11-06T07:01:44.895Z,100.00
2018-11-06T07:04:13.401Z,100.00
2018-11-06T07:06:41.913Z,100.00
2018-11-06T07:09:11.173Z,100.00
2018-11-06T07:11:39.698Z,100.00
2018-11-06T07:14:08.261Z,100.00
2018-11-06T07:16:36.818Z,100.00
2018-11-06T07:19:05.325Z,100.00
2018-11-06T07:21:33.822Z,100.00
2018-11-06T07:24:03.334Z,100.00
2018-11-06T07:26:32.510Z,100.00
2018-11-06T07:29:01.153Z,100.00
2018-11-06T07:31:29.725Z,100.00
2018-11-06T07:33:58.451Z,100.00
2018-11-06T07:36:27.042Z,100.00
2018-11-06T07:38:55.601Z,100.00
2018-11-06T07:41:24.261Z,100.00
2018-11-06T07:43:52.770Z,100.00
2018-11-06T07:46:21.369Z,100.00
2018-11-06T07:48:50.026Z,100.00
2018-11-06T07:51:18.562Z,100.00
2018-11-06T07:53:47.072Z,100.00
2018-11-06T07:56:15.642Z,100.00
2018-11-06T07:58:44.172Z,100.00
2018-11-06T08:01:12.717Z,100.00
2018-11-06T08:03:41.343Z,100.00
2018-11-06T08:06:09.926Z,100.00
2018-11-06T08:08:38.441Z,100.00
2018-11-06T08:11:07.066Z,100.00
2018-11-06T08:13:35.579Z,100.00
2018-11-06T08:16:04.208Z,100.00
2018-11-06T08:18:32.810Z,100.00
2018-11-06T08:21:01.384Z,100.00
2018-11-06T08:23:29.958Z,100.00
2018-11-06T08:25:58.579Z,100.00
2018-11-06T08:28:27.073Z,100.00
2018-11-06T08:30:55.913Z,100.00
2018-11-06T08:33:24.166Z,100.00
2018-11-06T08:35:52.935Z,100.00
2018-11-06T08:38:21.458Z,100.00
2018-11-06T08:40:49.994Z,100.00
2018-11-06T08:43:18.681Z,100.00
2018-11-06T08:45:47.609Z,100.00
2018-11-06T08:48:16.389Z,100.00
2018-11-06T08:50:44.885Z,100.00
2018-11-06T08:53:13.420Z,100.00
2018-11-06T08:55:41.915Z,100.00
2018-11-06T08:58:10.418Z,100.00
2018-11-06T09:00:38.963Z,100.00
2018-11-06T09:03:07.542Z,100.00
2018-11-06T09:05:36.057Z,100.00
2018-11-06T09:08:04.690Z,100.00
2018-11-06T09:10:33.607Z,100.00
2018-11-06T09:13:02.087Z,100.00
2018-11-06T09:15:30.642Z,100.00
2018-11-06T09:17:59.207Z,100.00
2018-11-06T09:20:27.787Z,100.00
2018-11-06T09:22:56.393Z,100.00
2018-11-06T09:25:24.957Z,100.00
2018-11-06T09:27:53.473Z,100.00
2018-11-06T09:30:22.310Z,100.00
2018-11-06T09:32:50.879Z,100.00
2018-11-06T09:35:19.464Z,100.00
2018-11-06T09:37:47.993Z,100.00
2018-11-06T09:40:18.042Z,100.00
2018-11-06T09:42:46.643Z,100.00
2018-11-06T09:45:15.271Z,100.00
2018-11-06T09:47:44.310Z,100.00
2018-11-06T09:50:15.423Z,100.00
2018-11-06T09:52:44.917Z,100.00
2018-11-06T09:55:13.801Z,100.00
2018-11-06T09:57:42.330Z,100.00
2018-11-06T10:00:14.466Z,100.00
2018-11-06T10:02:43.269Z,100.00
2018-11-06T10:05:12.738Z,100.00
2018-11-06T10:07:41.241Z,100.00
2018-11-06T10:10:12.565Z,100.00
2018-11-06T10:12:41.495Z,100.00
2018-11-06T10:15:12.102Z,100.00
2018-11-06T10:17:41.810Z,100.00
2018-11-06T10:20:11.283Z,100.00
2018-11-06T10:22:40.034Z,100.00
2018-11-06T10:25:09.462Z,100.00
2018-11-06T10:27:38.715Z,100.00
2018-11-06T10:30:11.747Z,100.00
2018-11-06T10:32:40.329Z,100.00
2018-11-06T10:35:09.614Z,100.00
2018-11-06T10:37:38.273Z,100.00
2018-11-06T10:40:09.515Z,100.00
2018-11-06T10:42:38.083Z,100.00
2018-11-06T10:45:07.064Z,100.00
2018-11-06T10:47:36.037Z,100.00
2018-11-06T10:50:04.874Z,100.00
2018-11-06T10:52:33.389Z,100.00
2018-11-06T10:55:01.945Z,100.00
2018-11-06T10:57:30.522Z,100.00
2018-11-06T10:59:59.104Z,100.00
2018-11-06T11:02:32.821Z,100.00
2018-11-06T11:05:01.401Z,100.00
2018-11-06T11:07:29.908Z,100.00
2018-11-06T11:09:58.577Z,100.00
2018-11-06T11:12:27.184Z,100.00
2018-11-06T11:14:55.729Z,100.00
2018-11-06T11:17:24.251Z,100.00
2018-11-06T11:19:52.738Z,100.00
2018-11-06T11:22:21.269Z,100.00
2018-11-06T11:24:49.785Z,100.00
2018-11-06T11:27:18.273Z,100.00
2018-11-06T11:29:46.891Z,100.00
2018-11-06T11:32:15.390Z,100.00
2018-11-06T11:34:44.039Z,100.00
2018-11-06T11:37:12.643Z,100.00
2018-11-06T11:39:41.149Z,100.00
2018-11-06T11:42:09.687Z,100.00
2018-11-06T11:44:38.217Z,100.00
2018-11-06T11:47:06.797Z,100.00
2018-11-06T11:49:35.428Z,100.00
2018-11-06T11:52:10.477Z,100.00
2018-11-06T11:54:39.005Z,100.00
2018-11-06T11:57:07.542Z,100.00
2018-11-06T11:59:36.168Z,100.00
2018-11-06T12:02:05.251Z,100.00
2018-11-06T12:04:33.738Z,100.00
2018-11-06T12:07:02.328Z,100.00
2018-11-06T12:09:30.847Z,100.00
2018-11-06T12:11:59.385Z,100.00
2018-11-06T12:14:27.963Z,100.00
2018-11-06T12:16:56.518Z,100.00
2018-11-06T12:19:25.173Z,98.22
2018-11-06T12:21:53.727Z,98.60
2018-11-06T12:24:22.316Z,100.00
2018-11-06T12:26:50.898Z,100.00
2018-11-06T12:29:19.504Z,100.00
2018-11-06T12:31:48.066Z,100.00
2018-11-06T12:34:17.092Z,100.00
2018-11-06T12:36:45.739Z,100.00
2018-11-06T12:39:14.393Z,100.00
2018-11-06T12:41:43.004Z,100.00
2018-11-06T12:44:11.553Z,99.27
2018-11-06T12:46:40.163Z,98.02
2018-11-06T12:49:08.686Z,97.51
2018-11-06T12:51:37.211Z,97.90
2018-11-06T12:54:06.397Z,96.99
2018-11-06T12:56:35.283Z,96.41
2018-11-06T12:59:10.500Z,95.67
2018-11-06T13:01:39.105Z,96.18
2018-11-06T13:04:07.647Z,96.30
2018-11-06T13:06:36.165Z,96.71
2018-11-06T13:09:06.862Z,96.18
2018-11-06T13:11:35.368Z,96.95
2018-11-06T13:14:03.962Z,96.94
2018-11-06T13:16:32.466Z,97.31
2018-11-06T13:19:01.126Z,96.12
2018-11-06T13:21:29.689Z,96.02
2018-11-06T13:23:58.247Z,94.66
2018-11-06T13:26:27.023Z,94.83
2018-11-06T13:28:55.383Z,94.82
2018-11-06T13:31:23.944Z,94.04
2018-11-06T13:33:52.550Z,94.34
2018-11-06T13:36:21.134Z,95.33
2018-11-06T13:38:49.675Z,94.95
2018-11-06T13:41:18.210Z,93.69
2018-11-06T13:43:46.834Z,93.19
2018-11-06T13:46:15.270Z,93.84
2018-11-06T13:48:43.816Z,94.55
2018-11-06T13:51:12.348Z,94.34
2018-11-06T13:53:40.870Z,94.32
2018-11-06T13:56:09.442Z,94.17
2018-11-06T13:58:37.975Z,93.76
2018-11-06T14:01:06.964Z,93.80
2018-11-06T14:03:35.759Z,93.50
2018-11-06T14:06:04.631Z,94.03
2018-11-06T14:08:33.668Z,94.21
2018-11-06T14:11:02.270Z,93.26
2018-11-06T14:13:30.804Z,93.41
2018-11-06T14:15:59.286Z,93.25
2018-11-06T14:18:27.845Z,92.51
2018-11-06T14:20:57.353Z,91.78
2018-11-06T14:23:25.905Z,91.83
2018-11-06T14:25:54.426Z,92.05
2018-11-06T14:28:29.246Z,91.86
2018-11-06T14:30:57.750Z,90.47
2018-11-06T14:33:26.522Z,89.90
2018-11-06T14:35:55.125Z,89.15
2018-11-06T14:38:23.758Z,89.63
2018-11-06T14:40:52.274Z,89.35
2018-11-06T14:43:20.969Z,90.48
2018-11-06T14:45:49.536Z,90.00
2018-11-06T14:48:18.179Z,90.62
2018-11-06T14:50:46.756Z,90.06
2018-11-06T14:53:15.314Z,89.74
2018-11-06T14:55:43.870Z,90.19
2018-11-06T14:58:12.385Z,90.97
2018-11-06T15:00:41.105Z,91.82
2018-11-06T15:03:09.736Z,92.40
2018-11-06T15:05:38.315Z,92.41
2018-11-06T15:08:07.304Z,92.68
2018-11-06T15:10:35.835Z,92.79
2018-11-06T15:13:04.449Z,93.02
2018-11-06T15:15:36.012Z,93.47
2018-11-06T15:18:05.220Z,93.53
2018-11-06T15:20:33.809Z,94.07
2018-11-06T15:23:02.367Z,93.82
2018-11-06T15:25:30.975Z,94.58
2018-11-06T15:27:59.466Z,94.43
2018-11-06T15:30:28.017Z,94.58
2018-11-06T15:32:56.692Z,94.89
2018-11-06T15:35:25.242Z,95.25
2018-11-06T15:37:53.740Z,95.77
2018-11-06T15:40:22.745Z,96.01
2018-11-06T15:42:51.355Z,95.84
2018-11-06T15:45:20.573Z,95.74
2018-11-06T15:47:49.534Z,96.38
2018-11-06T15:50:19.540Z,96.36
2018-11-06T15:52:49.037Z,96.34
2018-11-06T15:55:17.621Z,96.72
2018-11-06T15:57:46.433Z,97.08
2018-11-06T16:00:17.074Z,97.16
2018-11-06T16:02:46.171Z,97.29
2018-11-06T16:05:14.715Z,97.97
2018-11-06T16:07:43.381Z,98.96
2018-11-06T16:10:14.630Z,98.95
2018-11-06T16:12:43.865Z,99.53
2018-11-06T16:15:12.395Z,100.00
2018-11-06T16:17:40.939Z,100.00
2018-11-06T16:20:11.932Z,100.00
2018-11-06T16:22:40.592Z,100.00
2018-11-06T16:25:11.439Z,100.00
2018-11-06T16:27:40.433Z,100.00
2018-11-06T16:30:12.959Z,100.00
2018-11-06T16:32:41.594Z,100.00
2018-11-06T16:35:12.193Z,100.00
2018-11-06T16:37:41.042Z,100.00
2018-11-06T16:40:10.039Z,100.00
2018-11-06T16:42:38.762Z,100.00
2018-11-06T16:45:09.020Z,100.00
2018-11-06T16:47:37.530Z,100.00
2018-11-06T16:50:07.455Z,100.00
2018-11-06T16:52:36.023Z,100.00
2018-11-06T16:55:04.655Z,100.00
2018-11-06T16:57:33.170Z,100.00
2018-11-06T17:00:01.812Z,100.00
2018-11-06T17:02:30.375Z,100.00
2018-11-06T17:04:58.940Z,100.00
2018-11-06T17:07:27.988Z,100.00
2018-11-06T17:09:56.584Z,100.00
2018-11-06T17:12:25.546Z,100.00
2018-11-06T17:14:54.128Z,100.00
2018-11-06T17:17:22.762Z,100.00
2018-11-06T17:19:51.266Z,100.00
2018-11-06T17:22:20.209Z,100.00
2018-11-06T17:24:48.802Z,100.00
2018-11-06T17:27:17.347Z,100.00
2018-11-06T17:29:45.935Z,100.00
2018-11-06T17:32:14.462Z,100.00
2018-11-06T17:34:43.046Z,100.00
2018-11-06T17:37:11.640Z,100.00
2018-11-06T17:39:40.307Z,100.00
2018-11-06T17:42:08.832Z,100.00
2018-11-06T17:44:37.361Z,100.00
2018-11-06T17:47:06.316Z,100.00
2018-11-06T17:49:34.851Z,100.00
2018-11-06T17:52:03.388Z,100.00
2018-11-06T17:54:32.019Z,100.00
2018-11-06T17:57:00.606Z,100.00
2018-11-06T17:59:29.184Z,100.00
2018-11-06T18:01:57.759Z,100.00
2018-11-06T18:04:26.501Z,100.00
2018-11-06T18:06:55.039Z,100.00
2018-11-06T18:09:23.590Z,100.00
2018-11-06T18:11:52.126Z,100.00
2018-11-06T18:14:20.766Z,100.00
2018-11-06T18:16:49.346Z,100.00
2018-11-06T18:19:17.870Z,100.00
2018-11-06T18:21:46.469Z,100.00
2018-11-06T18:24:14.998Z,100.00
2018-11-06T18:26:43.553Z,100.00
2018-11-06T18:29:12.219Z,100.00
2018-11-06T18:31:40.786Z,100.00
2018-11-06T18:34:09.404Z,100.00
2018-11-06T18:36:37.966Z,100.00
2018-11-06T18:39:09.909Z,100.00
2018-11-06T18:41:38.397Z,100.00
2018-11-06T18:44:07.146Z,100.00
2018-11-06T18:46:35.727Z,100.00
2018-11-06T18:49:04.292Z,100.00
2018-11-06T18:51:32.860Z,100.00
2018-11-06T18:54:01.657Z,100.00
2018-11-06T18:56:30.180Z,100.00
2018-11-06T18:58:58.754Z,100.00
2018-11-06T19:01:27.747Z,100.00
2018-11-06T19:03:56.295Z,100.00
2018-11-06T19:06:24.865Z,100.00
2018-11-06T19:08:53.474Z,100.00
2018-11-06T19:11:22.018Z,100.00
2018-11-06T19:13:50.619Z,100.00
2018-11-06T19:16:22.131Z,100.00
2018-11-06T19:18:50.662Z,100.00
2018-11-06T19:21:19.349Z,100.00
2018-11-06T19:23:47.957Z,100.00
2018-11-06T19:26:16.499Z,100.00
2018-11-06T19:28:45.069Z,100.00
2018-11-06T19:31:13.663Z,100.00
2018-11-06T19:33:42.253Z,100.00
2018-11-06T19:36:10.944Z,100.00
2018-11-06T19:38:39.651Z,100.00
2018-11-06T19:41:08.411Z,100.00
2018-11-06T19:43:37.278Z,100.00
2018-11-06T19:46:06.039Z,100.00
2018-11-06T19:48:34.708Z,100.00
2018-11-06T19:51:03.305Z,100.00
2018-11-06T19:53:38.774Z,100.00
2018-11-06T19:56:07.228Z,100.00
2018-11-06T19:58:35.735Z,100.00
2018-11-06T20:01:04.476Z,100.00
2018-11-06T20:03:33.131Z,100.00
2018-11-06T20:06:01.745Z,100.00
2018-11-06T20:08:30.407Z,100.00
2018-11-06T20:10:59.119Z,100.00
2018-11-06T20:13:27.791Z,100.00
2018-11-06T20:15:56.914Z,100.00
2018-11-06T20:18:25.697Z,100.00
2018-11-06T20:20:54.893Z,100.00
2018-11-06T20:23:23.714Z,100.00
2018-11-06T20:25:52.482Z,100.00
2018-11-06T20:28:21.179Z,100.00
2018-11-06T20:30:50.178Z,100.00
2018-11-06T20:33:19.103Z,100.00
2018-11-06T20:35:47.812Z,100.00
2018-11-06T20:38:16.597Z,100.00
2018-11-06T20:40:45.630Z,100.00
2018-11-06T20:43:14.549Z,100.00
2018-11-06T20:45:43.404Z,100.00
2018-11-06T20:48:12.242Z,100.00
2018-11-06T20:50:40.930Z,100.00
2018-11-06T20:53:09.583Z,100.00
2018-11-06T20:55:39.049Z,100.00
2018-11-06T20:58:07.539Z,100.00
2018-11-06T21:00:36.084Z,100.00
2018-11-06T21:03:11.231Z,100.00
2018-11-06T21:05:39.803Z,100.00
2018-11-06T21:08:08.330Z,100.00
2018-11-06T21:10:36.921Z,100.00
2018-11-06T21:13:05.635Z,100.00
2018-11-06T21:15:34.185Z,100.00
2018-11-06T21:18:03.003Z,100.00
2018-11-06T21:20:31.504Z,100.00
2018-11-06T21:23:00.038Z,100.00
2018-11-06T21:25:28.695Z,100.00
2018-11-06T21:27:57.227Z,100.00
2018-11-06T21:30:25.725Z,100.00
2018-11-06T21:32:54.608Z,100.00
2018-11-06T21:35:23.866Z,100.00
2018-11-06T21:37:52.506Z,100.00
2018-11-06T21:40:21.811Z,100.00
2018-11-06T21:42:50.737Z,100.00
2018-11-06T21:45:19.512Z,100.00
2018-11-06T21:47:48.985Z,100.00
2018-11-06T21:50:17.948Z,100.00
2018-11-06T21:52:46.595Z,100.00
2018-11-06T21:55:17.523Z,100.00
2018-11-06T21:57:46.124Z,100.00
2018-11-06T22:00:17.002Z,100.00
2018-11-06T22:02:45.564Z,100.00
2018-11-06T22:05:15.368Z,100.00
2018-11-06T22:07:44.199Z,100.00
2018-11-06T22:10:13.949Z,100.00
2018-11-06T22:12:43.468Z,100.00
2018-11-06T22:15:13.102Z,100.00
2018-11-06T22:17:41.788Z,100.00
2018-11-06T22:20:12.107Z,100.00
2018-11-06T22:22:41.118Z,100.00
2018-11-06T22:25:09.693Z,100.00
2018-11-06T22:27:38.321Z,100.00
2018-11-06T22:30:10.878Z,100.00
2018-11-06T22:32:39.825Z,100.00
2018-11-06T22:35:10.195Z,100.00
2018-11-06T22:37:39.099Z,100.00
2018-11-06T22:40:08.236Z,100.00
2018-11-06T22:42:36.804Z,100.00
2018-11-06T22:45:06.394Z,100.00
2018-11-06T22:47:35.038Z,100.00
2018-11-06T22:50:03.581Z,100.00
2018-11-06T22:52:32.159Z,100.00
2018-11-06T22:55:00.769Z,100.00
2018-11-06T22:57:29.502Z,100.00
2018-11-06T22:59:58.090Z,100.00
2018-11-06T23:02:26.651Z,100.00
2018-11-06T23:04:55.311Z,100.00
2018-11-06T23:08:32.577Z,100.00
2018-11-06T23:11:01.183Z,100.00
2018-11-06T23:13:30.146Z,100.00
2018-11-06T23:15:58.681Z,100.00
2018-11-06T23:18:27.287Z,100.00
2018-11-06T23:20:55.829Z,100.00
2018-11-06T23:23:24.341Z,100.00
2018-11-06T23:25:53.146Z,100.00
2018-11-06T23:28:21.732Z,100.00
2018-11-06T23:30:50.296Z,100.00
2018-11-06T23:33:18.894Z,100.00
2018-11-06T23:35:47.569Z,100.00
2018-11-06T23:38:16.343Z,100.00
2018-11-06T23:40:44.940Z,100.00
2018-11-06T23:43:13.732Z,100.00
2018-11-06T23:45:42.466Z,100.00
2018-11-06T23:48:11.066Z,100.00
2018-11-06T23:50:39.709Z,100.00
2018-11-06T23:53:08.331Z,100.00
2018-11-06T23:55:37.003Z,100.00
2018-11-06T23:58:05.737Z,100.00
